sensor_id;sensor_type;location;lat;lon;timestamp;pressure;altitude;pressure_sealevel;temperature;humidity
75972;BME280;64651;47.540;19.088;2023-07-29T00:04:53;99989.53;;;21.07;94.74
75972;BME280;64651;47.540;19.088;2023-07-29T00:09:55;99984.84;;;21.11;94.59
75972;BME280;64651;47.540;19.088;2023-07-29T00:14:57;99989.19;;;21.09;94.64
75972;BME280;64651;47.540;19.088;2023-07-29T00:19:59;99991.53;;;21.06;94.64
75972;BME280;64651;47.540;19.088;2023-07-29T00:25:02;99981.31;;;20.98;93.84
75972;BME280;64651;47.540;19.088;2023-07-29T00:30:04;99988.72;;;20.91;93.15
75972;BME280;64651;47.540;19.088;2023-07-29T00:35:07;99992.75;;;20.78;93.04
75972;BME280;64651;47.540;19.088;2023-07-29T00:40:15;99986.66;;;20.60;93.59
75972;BME280;64651;47.540;19.088;2023-07-29T00:45:20;99986.22;;;21.17;89.49
75972;BME280;64651;47.540;19.088;2023-07-29T00:50:22;99981.88;;;21.04;89.31
75972;BME280;64651;47.540;19.088;2023-07-29T00:55:25;99989.97;;;20.93;89.60
75972;BME280;64651;47.540;19.088;2023-07-29T01:00:27;99980.25;;;21.03;88.70
75972;BME280;64651;47.540;19.088;2023-07-29T01:05:33;99972.69;;;21.03;87.89
75972;BME280;64651;47.540;19.088;2023-07-29T01:11:08;99966.62;;;21.01;87.02
75972;BME280;64651;47.540;19.088;2023-07-29T01:16:21;99975.63;;;20.95;87.40
75972;BME280;64651;47.540;19.088;2023-07-29T01:21:26;99975.63;;;20.95;87.45
75972;BME280;64651;47.540;19.088;2023-07-29T01:26:29;99974.81;;;20.79;88.71
75972;BME280;64651;47.540;19.088;2023-07-29T01:31:38;99974.44;;;20.80;88.53
75972;BME280;64651;47.540;19.088;2023-07-29T01:36:45;99969.66;;;20.81;88.67
75972;BME280;64651;47.540;19.088;2023-07-29T01:41:49;99982.81;;;19.84;93.16
75972;BME280;64651;47.540;19.088;2023-07-29T01:46:52;99980.69;;;20.61;89.02
75972;BME280;64651;47.540;19.088;2023-07-29T01:51:54;99984.22;;;20.58;88.76
75972;BME280;64651;47.540;19.088;2023-07-29T01:56:57;99977.28;;;20.68;88.23
75972;BME280;64651;47.540;19.088;2023-07-29T02:01:59;99977.13;;;20.61;88.40
75972;BME280;64651;47.540;19.088;2023-07-29T02:07:01;99980.38;;;20.35;89.97
75972;BME280;64651;47.540;19.088;2023-07-29T02:12:03;99980.47;;;20.26;89.76
75972;BME280;64651;47.540;19.088;2023-07-29T02:17:06;99985.84;;;20.19;89.77
75972;BME280;64651;47.540;19.088;2023-07-29T02:22:12;99983.22;;;20.11;90.16
75972;BME280;64651;47.540;19.088;2023-07-29T02:27:15;99972.28;;;20.06;90.45
75972;BME280;64651;47.540;19.088;2023-07-29T02:32:17;99984.28;;;20.06;91.06
75972;BME280;64651;47.540;19.088;2023-07-29T02:37:19;99988.09;;;20.02;91.40
75972;BME280;64651;47.540;19.088;2023-07-29T02:42:22;99996.50;;;20.02;91.52
75972;BME280;64651;47.540;19.088;2023-07-29T02:47:24;99981.97;;;19.96;91.56
75972;BME280;64651;47.540;19.088;2023-07-29T02:52:26;99985.34;;;19.90;91.94
75972;BME280;64651;47.540;19.088;2023-07-29T02:57:28;99994.09;;;19.88;92.30
75972;BME280;64651;47.540;19.088;2023-07-29T03:02:30;99997.66;;;19.89;91.76
75972;BME280;64651;47.540;19.088;2023-07-29T03:07:33;99991.91;;;19.81;91.99
75972;BME280;64651;47.540;19.088;2023-07-29T03:12:35;99994.47;;;19.74;91.94
75972;BME280;64651;47.540;19.088;2023-07-29T03:17:37;99994.31;;;19.83;91.20
75972;BME280;64651;47.540;19.088;2023-07-29T03:22:39;99990.72;;;19.70;91.27
75972;BME280;64651;47.540;19.088;2023-07-29T03:27:41;99996.53;;;19.65;91.39
75972;BME280;64651;47.540;19.088;2023-07-29T03:32:44;99999.56;;;19.72;91.72
75972;BME280;64651;47.540;19.088;2023-07-29T03:37:47;100005.88;;;19.69;91.47
75972;BME280;64651;47.540;19.088;2023-07-29T03:42:49;99995.97;;;19.72;91.21
75972;BME280;64651;47.540;19.088;2023-07-29T03:47:52;100001.88;;;19.70;91.20
75972;BME280;64651;47.540;19.088;2023-07-29T03:52:54;99994.47;;;19.74;90.72
75972;BME280;64651;47.540;19.088;2023-07-29T03:57:59;99994.88;;;19.89;89.91
75972;BME280;64651;47.540;19.088;2023-07-29T04:03:02;100008.41;;;19.87;89.75
75972;BME280;64651;47.540;19.088;2023-07-29T04:08:07;100013.50;;;19.97;88.92
75972;BME280;64651;47.540;19.088;2023-07-29T04:13:09;100013.13;;;20.10;88.41
75972;BME280;64651;47.540;19.088;2023-07-29T04:18:11;100012.28;;;20.22;87.74
75972;BME280;64651;47.540;19.088;2023-07-29T04:23:13;100017.25;;;20.41;87.05
75972;BME280;64651;47.540;19.088;2023-07-29T04:28:16;100017.84;;;20.62;86.29
75972;BME280;64651;47.540;19.088;2023-07-29T04:33:18;100012.06;;;20.98;85.21
75972;BME280;64651;47.540;19.088;2023-07-29T04:38:20;100008.72;;;21.36;83.76
75972;BME280;64651;47.540;19.088;2023-07-29T04:43:22;100010.19;;;21.46;83.32
75972;BME280;64651;47.540;19.088;2023-07-29T04:48:28;100021.00;;;21.48;83.68
75972;BME280;64651;47.540;19.088;2023-07-29T04:53:30;100008.97;;;21.47;83.85
75972;BME280;64651;47.540;19.088;2023-07-29T04:58:32;100001.31;;;21.44;84.66
75972;BME280;64651;47.540;19.088;2023-07-29T05:03:37;100014.41;;;21.56;84.94
75972;BME280;64651;47.540;19.088;2023-07-29T05:08:41;100019.72;;;21.61;85.54
75972;BME280;64651;47.540;19.088;2023-07-29T05:13:44;100014.44;;;22.06;83.73
75972;BME280;64651;47.540;19.088;2023-07-29T05:18:46;100019.03;;;22.53;82.25
75972;BME280;64651;47.540;19.088;2023-07-29T05:23:48;100037.53;;;22.73;80.43
75972;BME280;64651;47.540;19.088;2023-07-29T05:28:51;100027.09;;;22.93;78.02
75972;BME280;64651;47.540;19.088;2023-07-29T05:33:54;100024.63;;;23.33;75.25
75972;BME280;64651;47.540;19.088;2023-07-29T05:38:56;100037.97;;;23.40;73.94
75972;BME280;64651;47.540;19.088;2023-07-29T05:43:58;100038.28;;;23.80;70.99
75972;BME280;64651;47.540;19.088;2023-07-29T05:49:00;100043.09;;;23.80;69.51
75972;BME280;64651;47.540;19.088;2023-07-29T05:54:03;100057.81;;;24.22;68.23
75972;BME280;64651;47.540;19.088;2023-07-29T05:59:05;100058.25;;;24.24;66.04
75972;BME280;64651;47.540;19.088;2023-07-29T06:04:07;100064.66;;;24.81;64.26
75972;BME280;64651;47.540;19.088;2023-07-29T06:09:10;100067.97;;;25.24;62.52
75972;BME280;64651;47.540;19.088;2023-07-29T06:14:12;100083.41;;;25.37;62.21
75972;BME280;64651;47.540;19.088;2023-07-29T06:19:14;100079.41;;;25.41;63.24
75972;BME280;64651;47.540;19.088;2023-07-29T06:24:17;100086.78;;;25.16;64.40
75972;BME280;64651;47.540;19.088;2023-07-29T06:29:19;100084.59;;;24.99;65.45
75972;BME280;64651;47.540;19.088;2023-07-29T06:34:21;100088.50;;;24.91;64.90
75972;BME280;64651;47.540;19.088;2023-07-29T06:39:27;100089.25;;;24.88;65.12
75972;BME280;64651;47.540;19.088;2023-07-29T06:44:29;100104.69;;;24.97;63.57
75972;BME280;64651;47.540;19.088;2023-07-29T06:49:31;100091.16;;;25.10;62.48
75972;BME280;64651;47.540;19.088;2023-07-29T06:54:34;100084.53;;;25.32;61.16
75972;BME280;64651;47.540;19.088;2023-07-29T06:59:36;100080.87;;;25.65;60.86
75972;BME280;64651;47.540;19.088;2023-07-29T07:04:40;100085.09;;;25.85;58.98
75972;BME280;64651;47.540;19.088;2023-07-29T07:09:42;100084.19;;;26.25;57.72
75972;BME280;64651;47.540;19.088;2023-07-29T07:14:44;100085.28;;;26.10;57.12
75972;BME280;64651;47.540;19.088;2023-07-29T07:19:46;100075.44;;;26.45;56.43
75972;BME280;64651;47.540;19.088;2023-07-29T07:24:48;100076.84;;;26.83;55.01
75972;BME280;64651;47.540;19.088;2023-07-29T07:29:51;100079.47;;;27.44;53.88
75972;BME280;64651;47.540;19.088;2023-07-29T07:34:53;100064.59;;;27.87;52.85
75972;BME280;64651;47.540;19.088;2023-07-29T07:39:55;100071.03;;;28.05;52.53
75972;BME280;64651;47.540;19.088;2023-07-29T07:44:57;100064.56;;;28.22;51.41
75972;BME280;64651;47.540;19.088;2023-07-29T07:49:59;100065.25;;;28.65;50.32
75972;BME280;64651;47.540;19.088;2023-07-29T07:55:02;100059.03;;;29.68;48.14
75972;BME280;64651;47.540;19.088;2023-07-29T08:00:05;100047.81;;;30.43;46.30
75972;BME280;64651;47.540;19.088;2023-07-29T08:05:07;100043.38;;;31.10;44.56
75972;BME280;64651;47.540;19.088;2023-07-29T08:10:10;100043.50;;;32.03;43.07
75972;BME280;64651;47.540;19.088;2023-07-29T08:15:12;100035.03;;;33.21;39.52
75972;BME280;64651;47.540;19.088;2023-07-29T08:20:14;100031.50;;;33.98;38.23
75972;BME280;64651;47.540;19.088;2023-07-29T08:25:16;100025.50;;;34.70;37.11
75972;BME280;64651;47.540;19.088;2023-07-29T08:30:19;100014.63;;;34.78;36.20
75972;BME280;64651;47.540;19.088;2023-07-29T08:35:21;100017.69;;;34.42;36.84
75972;BME280;64651;47.540;19.088;2023-07-29T08:40:27;100017.25;;;34.43;36.83
75972;BME280;64651;47.540;19.088;2023-07-29T08:45:35;100015.69;;;34.26;35.85
75972;BME280;64651;47.540;19.088;2023-07-29T08:50:39;100015.28;;;34.40;34.67
75972;BME280;64651;47.540;19.088;2023-07-29T08:55:42;100011.25;;;36.18;32.20
75972;BME280;64651;47.540;19.088;2023-07-29T09:00:46;100008.06;;;36.16;30.60
75972;BME280;64651;47.540;19.088;2023-07-29T09:05:48;100008.16;;;36.13;28.44
75972;BME280;64651;47.540;19.088;2023-07-29T09:10:51;100003.81;;;36.21;28.96
75972;BME280;64651;47.540;19.088;2023-07-29T09:15:55;99999.44;;;36.73;28.51
75972;BME280;64651;47.540;19.088;2023-07-29T09:20:59;99997.25;;;37.38;26.92
75972;BME280;64651;47.540;19.088;2023-07-29T09:26:03;99994.66;;;37.01;27.38
75972;BME280;64651;47.540;19.088;2023-07-29T09:31:05;99987.34;;;37.39;26.67
75972;BME280;64651;47.540;19.088;2023-07-29T09:36:09;99987.44;;;37.27;26.40
75972;BME280;64651;47.540;19.088;2023-07-29T09:41:19;99975.19;;;37.75;25.86
75972;BME280;64651;47.540;19.088;2023-07-29T09:46:22;99973.72;;;37.71;26.54
75972;BME280;64651;47.540;19.088;2023-07-29T09:51:25;99968.78;;;36.91;27.28
75972;BME280;64651;47.540;19.088;2023-07-29T09:56:27;99970.22;;;36.43;27.67
75972;BME280;64651;47.540;19.088;2023-07-29T10:01:30;99962.41;;;36.44;27.23
75972;BME280;64651;47.540;19.088;2023-07-29T10:06:34;99968.72;;;37.53;25.28
75972;BME280;64651;47.540;19.088;2023-07-29T10:11:37;99959.09;;;40.01;22.62
75972;BME280;64651;47.540;19.088;2023-07-29T10:16:42;99953.25;;;39.62;22.92
75972;BME280;64651;47.540;19.088;2023-07-29T10:21:48;99941.84;;;37.87;24.03
75972;BME280;64651;47.540;19.088;2023-07-29T10:26:52;99947.72;;;39.17;23.23
75972;BME280;64651;47.540;19.088;2023-07-29T10:31:55;99948.31;;;39.78;22.89
75972;BME280;64651;47.540;19.088;2023-07-29T10:36:59;99940.50;;;40.84;21.52
75972;BME280;64651;47.540;19.088;2023-07-29T10:42:05;99926.22;;;43.46;19.32
75972;BME280;64651;47.540;19.088;2023-07-29T10:57:39;99929.72;;;39.64;23.04
75972;BME280;64651;47.540;19.088;2023-07-29T11:02:56;99929.78;;;39.22;23.93
75972;BME280;64651;47.540;19.088;2023-07-29T11:08:23;99921.44;;;38.03;25.03
75972;BME280;64651;47.540;19.088;2023-07-29T11:13:27;99926.03;;;39.63;23.09
75972;BME280;64651;47.540;19.088;2023-07-29T11:18:34;99914.31;;;42.39;21.02
75972;BME280;64651;47.540;19.088;2023-07-29T11:23:37;99929.44;;;40.53;22.60
75972;BME280;64651;47.540;19.088;2023-07-29T11:28:40;99922.34;;;38.46;25.70
75972;BME280;64651;47.540;19.088;2023-07-29T11:33:42;99934.72;;;36.41;27.59
75972;BME280;64651;47.540;19.088;2023-07-29T11:38:45;99916.22;;;36.42;28.13
75972;BME280;64651;47.540;19.088;2023-07-29T11:43:48;99897.44;;;41.51;22.17
75972;BME280;64651;47.540;19.088;2023-07-29T11:48:50;99899.66;;;42.48;20.79
75972;BME280;64651;47.540;19.088;2023-07-29T11:53:55;99886.19;;;45.43;18.61
75972;BME280;64651;47.540;19.088;2023-07-29T11:58:57;99878.37;;;45.10;18.54
75972;BME280;64651;47.540;19.088;2023-07-29T12:04:00;99874.06;;;41.14;21.51
75972;BME280;64651;47.540;19.088;2023-07-29T12:09:02;99875.28;;;42.60;20.48
75972;BME280;64651;47.540;19.088;2023-07-29T12:14:07;99863.78;;;40.34;22.54
75972;BME280;64651;47.540;19.088;2023-07-29T12:19:13;99867.47;;;38.68;23.69
75972;BME280;64651;47.540;19.088;2023-07-29T12:24:16;99866.75;;;38.49;23.57
75972;BME280;64651;47.540;19.088;2023-07-29T12:29:19;99867.22;;;40.08;21.71
75972;BME280;64651;47.540;19.088;2023-07-29T12:34:31;99847.53;;;42.74;20.13
75972;BME280;64651;47.540;19.088;2023-07-29T12:39:35;99860.75;;;37.83;23.90
75972;BME280;64651;47.540;19.088;2023-07-29T12:44:38;99854.63;;;37.17;25.50
75972;BME280;64651;47.540;19.088;2023-07-29T12:49:40;99871.91;;;33.88;29.16
75972;BME280;64651;47.540;19.088;2023-07-29T12:54:44;99852.81;;;37.02;26.04
75972;BME280;64651;47.540;19.088;2023-07-29T12:59:46;99848.50;;;39.03;23.65
75972;BME280;64651;47.540;19.088;2023-07-29T13:04:49;99843.06;;;35.50;27.56
75972;BME280;64651;47.540;19.088;2023-07-29T13:09:52;99831.81;;;38.74;23.12
75972;BME280;64651;47.540;19.088;2023-07-29T13:14:54;99840.31;;;37.26;24.50
75972;BME280;64651;47.540;19.088;2023-07-29T13:19:56;99825.81;;;37.94;23.76
75972;BME280;64651;47.540;19.088;2023-07-29T13:24:58;99833.59;;;37.20;24.94
75972;BME280;64651;47.540;19.088;2023-07-29T13:30:01;99823.94;;;36.96;24.52
75972;BME280;64651;47.540;19.088;2023-07-29T13:35:03;99824.28;;;36.27;25.59
75972;BME280;64651;47.540;19.088;2023-07-29T13:40:06;99812.63;;;38.38;23.52
75972;BME280;64651;47.540;19.088;2023-07-29T13:45:09;99804.50;;;37.09;25.30
75972;BME280;64651;47.540;19.088;2023-07-29T13:50:11;99809.41;;;36.50;25.95
75972;BME280;64651;47.540;19.088;2023-07-29T13:55:13;99795.97;;;37.36;24.54
75972;BME280;64651;47.540;19.088;2023-07-29T14:00:16;99791.12;;;38.67;23.14
75972;BME280;64651;47.540;19.088;2023-07-29T14:05:18;99780.72;;;36.41;25.51
75972;BME280;64651;47.540;19.088;2023-07-29T14:10:20;99787.37;;;36.78;25.06
75972;BME280;64651;47.540;19.088;2023-07-29T14:15:23;99778.25;;;39.10;22.46
75972;BME280;64651;47.540;19.088;2023-07-29T14:20:25;99768.72;;;37.32;24.29
75972;BME280;64651;47.540;19.088;2023-07-29T14:25:27;99750.31;;;37.93;23.99
75972;BME280;64651;47.540;19.088;2023-07-29T14:30:29;99751.41;;;36.37;25.50
75972;BME280;64651;47.540;19.088;2023-07-29T14:35:32;99765.44;;;35.14;27.08
75972;BME280;64651;47.540;19.088;2023-07-29T14:40:34;99758.09;;;36.12;26.17
75972;BME280;64651;47.540;19.088;2023-07-29T14:45:36;99751.97;;;35.01;27.64
75972;BME280;64651;47.540;19.088;2023-07-29T14:50:38;99749.34;;;35.63;27.27
75972;BME280;64651;47.540;19.088;2023-07-29T14:55:40;99758.59;;;34.64;28.73
75972;BME280;64651;47.540;19.088;2023-07-29T15:00:45;99759.00;;;33.13;30.79
75972;BME280;64651;47.540;19.088;2023-07-29T15:05:47;99756.06;;;32.35;32.11
75972;BME280;64651;47.540;19.088;2023-07-29T15:10:50;99759.09;;;32.28;32.82
75972;BME280;64651;47.540;19.088;2023-07-29T15:15:54;99762.00;;;32.77;32.13
75972;BME280;64651;47.540;19.088;2023-07-29T15:20:57;99753.97;;;32.72;32.38
75972;BME280;64651;47.540;19.088;2023-07-29T15:25:59;99759.47;;;32.95;32.33
75972;BME280;64651;47.540;19.088;2023-07-29T15:31:01;99758.44;;;34.17;30.38
75972;BME280;64651;47.540;19.088;2023-07-29T15:36:04;99750.66;;;34.05;30.65
75972;BME280;64651;47.540;19.088;2023-07-29T15:41:06;99756.44;;;33.47;30.96
75972;BME280;64651;47.540;19.088;2023-07-29T15:46:08;99758.34;;;32.92;31.82
75972;BME280;64651;47.540;19.088;2023-07-29T15:51:10;99755.91;;;32.42;32.57
75972;BME280;64651;47.540;19.088;2023-07-29T15:56:13;99762.56;;;32.00;33.25
75972;BME280;64651;47.540;19.088;2023-07-29T16:01:15;99766.97;;;31.84;34.05
75972;BME280;64651;47.540;19.088;2023-07-29T16:06:17;99766.81;;;31.52;34.49
75972;BME280;64651;47.540;19.088;2023-07-29T16:11:20;99777.28;;;31.59;34.65
75972;BME280;64651;47.540;19.088;2023-07-29T16:16:22;99781.75;;;31.56;35.14
75972;BME280;64651;47.540;19.088;2023-07-29T16:21:24;99785.38;;;31.37;35.77
75972;BME280;64651;47.540;19.088;2023-07-29T16:26:27;99801.56;;;30.70;36.91
75972;BME280;64651;47.540;19.088;2023-07-29T16:31:29;99799.34;;;30.58;37.23
75972;BME280;64651;47.540;19.088;2023-07-29T16:36:31;99808.53;;;30.39;37.79
75972;BME280;64651;47.540;19.088;2023-07-29T16:41:34;99802.41;;;30.13;38.44
75972;BME280;64651;47.540;19.088;2023-07-29T16:46:39;99809.03;;;30.03;38.95
75972;BME280;64651;47.540;19.088;2023-07-29T16:51:41;99811.13;;;29.99;39.25
75972;BME280;64651;47.540;19.088;2023-07-29T16:56:46;99813.28;;;29.88;39.78
75972;BME280;64651;47.540;19.088;2023-07-29T17:01:48;99814.09;;;29.89;39.81
75972;BME280;64651;47.540;19.088;2023-07-29T17:06:51;99827.22;;;29.75;40.65
75972;BME280;64651;47.540;19.088;2023-07-29T17:11:53;99824.13;;;29.59;40.90
75972;BME280;64651;47.540;19.088;2023-07-29T17:16:57;99824.41;;;29.34;41.70
75972;BME280;64651;47.540;19.088;2023-07-29T17:21:59;99838.78;;;29.13;42.09
75972;BME280;64651;47.540;19.088;2023-07-29T17:27:01;99843.41;;;28.93;43.06
75972;BME280;64651;47.540;19.088;2023-07-29T17:32:04;99853.25;;;28.67;44.63
75972;BME280;64651;47.540;19.088;2023-07-29T17:37:06;99861.91;;;28.42;45.55
75972;BME280;64651;47.540;19.088;2023-07-29T17:42:08;99864.94;;;28.00;47.04
75972;BME280;64651;47.540;19.088;2023-07-29T17:47:11;99867.03;;;27.81;47.31
75972;BME280;64651;47.540;19.088;2023-07-29T17:52:13;99863.06;;;27.51;47.92
75972;BME280;64651;47.540;19.088;2023-07-29T17:57:15;99859.84;;;27.34;49.04
75972;BME280;64651;47.540;19.088;2023-07-29T18:02:18;99874.38;;;26.83;50.85
75972;BME280;64651;47.540;19.088;2023-07-29T18:07:20;99857.66;;;26.18;50.54
75972;BME280;64651;47.540;19.088;2023-07-29T18:12:22;99856.09;;;26.24;51.08
75972;BME280;64651;47.540;19.088;2023-07-29T18:17:24;99860.09;;;26.19;51.17
75972;BME280;64651;47.540;19.088;2023-07-29T18:22:27;99866.06;;;26.00;52.47
75972;BME280;64651;47.540;19.088;2023-07-29T18:27:29;99878.06;;;25.79;53.51
75972;BME280;64651;47.540;19.088;2023-07-29T18:32:31;99873.59;;;25.75;53.82
75972;BME280;64651;47.540;19.088;2023-07-29T18:37:35;99880.88;;;25.79;53.65
75972;BME280;64651;47.540;19.088;2023-07-29T18:42:38;99891.78;;;25.84;53.40
75972;BME280;64651;47.540;19.088;2023-07-29T18:47:40;99886.44;;;25.69;55.11
75972;BME280;64651;47.540;19.088;2023-07-29T18:52:43;99886.13;;;25.84;54.77
75972;BME280;64651;47.540;19.088;2023-07-29T18:57:45;99880.88;;;25.83;54.37
75972;BME280;64651;47.540;19.088;2023-07-29T19:02:47;99893.34;;;25.82;54.65
75972;BME280;64651;47.540;19.088;2023-07-29T19:07:50;99892.94;;;25.80;54.92
75972;BME280;64651;47.540;19.088;2023-07-29T19:12:52;99902.25;;;25.84;55.07
75972;BME280;64651;47.540;19.088;2023-07-29T19:17:58;99902.19;;;25.77;55.34
75972;BME280;64651;47.540;19.088;2023-07-29T19:23:01;99902.81;;;25.49;56.81
75972;BME280;64651;47.540;19.088;2023-07-29T19:28:03;99907.03;;;25.25;58.11
75972;BME280;64651;47.540;19.088;2023-07-29T19:33:07;99910.50;;;25.04;58.55
75972;BME280;64651;47.540;19.088;2023-07-29T19:38:09;99889.97;;;25.04;57.18
75972;BME280;64651;47.540;19.088;2023-07-29T19:43:12;99882.72;;;24.99;58.09
75972;BME280;64651;47.540;19.088;2023-07-29T19:48:14;99871.59;;;24.73;59.75
75972;BME280;64651;47.540;19.088;2023-07-29T19:53:17;99864.66;;;24.63;60.86
75972;BME280;64651;47.540;19.088;2023-07-29T19:58:19;99864.44;;;24.42;61.27
75972;BME280;64651;47.540;19.088;2023-07-29T20:03:21;99862.72;;;24.34;61.96
75972;BME280;64651;47.540;19.088;2023-07-29T20:08:23;99839.63;;;24.18;62.57
75972;BME280;64651;47.540;19.088;2023-07-29T20:13:26;99841.44;;;24.00;62.81
75972;BME280;64651;47.540;19.088;2023-07-29T20:18:28;99854.19;;;23.90;63.31
75972;BME280;64651;47.540;19.088;2023-07-29T20:23:31;99868.12;;;23.83;63.37
75972;BME280;64651;47.540;19.088;2023-07-29T20:28:33;99871.53;;;23.66;63.84
75972;BME280;64651;47.540;19.088;2023-07-29T20:33:35;99877.75;;;23.82;62.35
75972;BME280;64651;47.540;19.088;2023-07-29T20:38:37;99896.00;;;23.65;64.04
75972;BME280;64651;47.540;19.088;2023-07-29T20:43:42;99890.50;;;23.76;64.12
75972;BME280;64651;47.540;19.088;2023-07-29T20:48:44;99889.97;;;23.67;63.75
75972;BME280;64651;47.540;19.088;2023-07-29T20:53:47;99888.28;;;23.89;59.93
75972;BME280;64651;47.540;19.088;2023-07-29T20:58:49;99894.41;;;23.98;58.69
75972;BME280;64651;47.540;19.088;2023-07-29T21:03:53;99897.94;;;23.91;59.36
75972;BME280;64651;47.540;19.088;2023-07-29T21:08:55;99889.28;;;24.37;56.13
75972;BME280;64651;47.540;19.088;2023-07-29T21:13:57;99895.94;;;24.58;55.04
75972;BME280;64651;47.540;19.088;2023-07-29T21:18:59;99888.00;;;24.27;56.66
75972;BME280;64651;47.540;19.088;2023-07-29T21:24:02;99891.53;;;23.91;58.43
75972;BME280;64651;47.540;19.088;2023-07-29T21:29:04;99894.87;;;23.73;59.03
75972;BME280;64651;47.540;19.088;2023-07-29T21:34:06;99914.56;;;23.47;60.17
75972;BME280;64651;47.540;19.088;2023-07-29T21:39:08;99925.66;;;23.40;60.68
75972;BME280;64651;47.540;19.088;2023-07-29T21:44:10;99925.66;;;23.40;60.81
75972;BME280;64651;47.540;19.088;2023-07-29T21:49:13;99921.06;;;23.51;59.60
75972;BME280;64651;47.540;19.088;2023-07-29T21:54:15;99929.84;;;23.27;61.04
75972;BME280;64651;47.540;19.088;2023-07-29T21:59:17;99942.34;;;23.29;61.33
75972;BME280;64651;47.540;19.088;2023-07-29T22:04:19;99937.63;;;23.11;62.95
75972;BME280;64651;47.540;19.088;2023-07-29T22:09:21;99950.63;;;22.99;62.34
75972;BME280;64651;47.540;19.088;2023-07-29T22:14:25;99937.53;;;22.84;64.66
75972;BME280;64651;47.540;19.088;2023-07-29T22:19:27;99930.66;;;22.82;64.09
75972;BME280;64651;47.540;19.088;2023-07-29T22:24:30;99947.47;;;23.01;63.45
75972;BME280;64651;47.540;19.088;2023-07-29T22:29:33;99950.69;;;23.26;60.70
75972;BME280;64651;47.540;19.088;2023-07-29T22:34:35;99946.56;;;23.65;59.33
75972;BME280;64651;47.540;19.088;2023-07-29T22:39:38;99952.94;;;23.92;57.97
75972;BME280;64651;47.540;19.088;2023-07-29T22:44:40;99947.66;;;23.87;57.82
75972;BME280;64651;47.540;19.088;2023-07-29T22:49:43;99929.41;;;23.74;57.59
75972;BME280;64651;47.540;19.088;2023-07-29T22:54:45;99948.03;;;23.85;57.44
75972;BME280;64651;47.540;19.088;2023-07-29T22:59:47;99950.53;;;23.91;57.49
75972;BME280;64651;47.540;19.088;2023-07-29T23:04:49;99940.81;;;23.84;57.71
75972;BME280;64651;47.540;19.088;2023-07-29T23:09:52;99951.06;;;23.73;58.04
75972;BME280;64651;47.540;19.088;2023-07-29T23:14:54;99959.78;;;23.65;58.53
75972;BME280;64651;47.540;19.088;2023-07-29T23:19:56;99956.81;;;23.54;58.95
75972;BME280;64651;47.540;19.088;2023-07-29T23:24:58;99958.59;;;23.66;58.71
75972;BME280;64651;47.540;19.088;2023-07-29T23:30:03;99945.22;;;23.85;57.78
75972;BME280;64651;47.540;19.088;2023-07-29T23:35:08;99943.62;;;23.84;57.70
75972;BME280;64651;47.540;19.088;2023-07-29T23:40:10;99948.13;;;23.93;57.40
75972;BME280;64651;47.540;19.088;2023-07-29T23:45:12;99952.59;;;23.97;57.19
75972;BME280;64651;47.540;19.088;2023-07-29T23:50:15;99949.63;;;24.13;56.63
75972;BME280;64651;47.540;19.088;2023-07-29T23:55:17;99948.37;;;24.10;56.80
